Terminal Aerodrome Forecast
Issued by NWS Brownsville, TX

Home | Current Version | Previous Version | Text Only | Print | Product List | Glossary On
Versions: 1 2 3 4 5 6 7 8 9 10 11 12 13 14 15 16 17
098
FTUS44 KBRO 262330
TAFHRL
TAF
KHRL 262330Z 2700/2724 15017G24KT P6SM BKN250
     FM270200 14015G21KT P6SM SCT015 SCT250
      TEMPO 2703/2706 BKN015
     FM270600 16014G20KT P6SM BKN015
     FM271400 17018G24KT P6SM BKN025
     FM271800 16022G29KT P6SM FEW035 BKN250=

USA.gov is the U.S. government's official web portal to all federal, state and local government web resources and services.